createdAt,value
2022-11-29T00:01:13.820Z,9.10
2022-11-29T00:03:40.686Z,9.10
2022-11-29T00:06:14.533Z,9.10
2022-11-29T00:08:42.024Z,9.10
2022-11-29T00:11:10.233Z,9.10
2022-11-29T00:13:36.987Z,9.10
2022-11-29T00:16:07.733Z,9.10
2022-11-29T00:18:34.696Z,9.10
2022-11-29T00:21:05.157Z,9.10
2022-11-29T00:23:31.853Z,9.10
2022-11-29T00:26:07.967Z,9.20
2022-11-29T00:28:35.317Z,9.10
2022-11-29T00:31:12.222Z,9.10
2022-11-29T00:33:38.944Z,9.10
2022-11-29T00:36:05.746Z,9.10
2022-11-29T00:38:32.811Z,9.00
2022-11-29T00:40:59.518Z,9.10
2022-11-29T00:43:26.187Z,9.10
2022-11-29T00:45:52.949Z,9.10
2022-11-29T00:48:19.627Z,9.10
2022-11-29T00:50:46.300Z,9.10
2022-11-29T00:53:12.917Z,9.10
2022-11-29T00:55:39.883Z,9.10
2022-11-29T00:58:06.623Z,9.10
2022-11-29T01:00:33.334Z,9.10
2022-11-29T01:03:01.658Z,9.10
2022-11-29T01:05:28.401Z,9.10
2022-11-29T01:07:55.261Z,9.10
2022-11-29T01:10:21.951Z,9.10
2022-11-29T01:12:48.712Z,9.10
2022-11-29T01:15:15.668Z,9.00
2022-11-29T01:17:42.484Z,9.00
2022-11-29T01:20:10.522Z,9.00
2022-11-29T01:22:38.018Z,9.00
2022-11-29T01:25:05.757Z,9.00
2022-11-29T01:27:32.682Z,9.00
2022-11-29T01:29:59.328Z,9.00
2022-11-29T01:32:26.077Z,9.00
2022-11-29T01:34:52.756Z,9.00
2022-11-29T01:37:19.572Z,9.00
2022-11-29T01:39:46.180Z,9.00
2022-11-29T01:42:13.762Z,9.00
2022-11-29T01:44:46.905Z,9.00
2022-11-29T01:47:13.816Z,9.00
2022-11-29T01:49:45.308Z,8.90
2022-11-29T01:52:14.997Z,8.90
2022-11-29T01:54:43.775Z,8.90
2022-11-29T01:57:11.338Z,8.90
2022-11-29T01:59:41.214Z,9.00
2022-11-29T02:02:15.821Z,8.90
2022-11-29T02:04:49.151Z,9.00
2022-11-29T02:07:16.232Z,8.90
2022-11-29T02:09:42.921Z,8.90
2022-11-29T02:12:32.833Z,8.90
2022-11-29T02:15:08.146Z,8.90
2022-11-29T02:17:43.990Z,8.90
2022-11-29T02:20:22.869Z,8.90
2022-11-29T02:23:08.080Z,8.90
2022-11-29T02:25:35.106Z,8.90
2022-11-29T02:28:13.669Z,8.90
2022-11-29T02:30:55.403Z,8.80
2022-11-29T02:33:22.149Z,8.80
2022-11-29T02:36:00.478Z,8.80
2022-11-29T02:38:33.188Z,8.80
2022-11-29T02:41:20.111Z,8.80
2022-11-29T02:43:57.920Z,8.80
2022-11-29T02:46:39.728Z,8.80
2022-11-29T02:49:31.866Z,8.80
2022-11-29T02:52:08.702Z,8.70
2022-11-29T02:54:51.802Z,8.70
2022-11-29T02:57:28.129Z,8.70
2022-11-29T03:00:17.795Z,8.70
2022-11-29T03:02:50.224Z,8.70
2022-11-29T03:05:22.932Z,8.70
2022-11-29T03:08:12.943Z,8.70
2022-11-29T03:10:45.478Z,8.70
2022-11-29T03:13:22.574Z,8.70
2022-11-29T03:15:59.220Z,8.70
2022-11-29T03:18:58.286Z,8.60
2022-11-29T03:21:35.714Z,8.60
2022-11-29T03:24:05.404Z,8.70
2022-11-29T03:26:35.335Z,8.60
2022-11-29T03:29:33.756Z,8.60
2022-11-29T03:32:14.944Z,8.60
2022-11-29T03:34:57.365Z,8.60
2022-11-29T03:37:38.084Z,8.60
2022-11-29T03:40:04.837Z,8.60
2022-11-29T03:42:34.310Z,8.60
2022-11-29T03:45:00.994Z,8.60
2022-11-29T03:47:49.530Z,8.60
2022-11-29T03:50:22.166Z,8.60
2022-11-29T03:52:51.907Z,8.60
2022-11-29T03:55:21.055Z,8.60
2022-11-29T03:57:55.589Z,8.60
2022-11-29T04:00:22.557Z,8.60
2022-11-29T04:02:55.205Z,8.70
2022-11-29T04:05:34.065Z,8.60
2022-11-29T04:08:01.086Z,8.60
2022-11-29T04:10:37.673Z,8.60
2022-11-29T04:13:16.815Z,8.70
2022-11-29T04:15:55.621Z,8.70
2022-11-29T04:18:31.431Z,8.60
2022-11-29T04:20:58.032Z,8.60
2022-11-29T04:23:27.690Z,8.60
2022-11-29T04:26:09.737Z,8.60
2022-11-29T04:28:54.707Z,8.60
2022-11-29T04:31:24.196Z,8.50
2022-11-29T04:33:53.915Z,8.50
2022-11-29T04:36:40.820Z,8.50
2022-11-29T04:39:07.462Z,8.50
2022-11-29T04:41:57.679Z,8.50
2022-11-29T04:44:33.619Z,8.50
2022-11-29T04:47:09.381Z,8.60
2022-11-29T04:49:48.400Z,8.60
2022-11-29T04:52:20.919Z,8.60
2022-11-29T04:55:20.813Z,8.60
2022-11-29T04:57:53.563Z,8.50
2022-11-29T05:00:21.600Z,8.50
2022-11-29T05:02:58.770Z,8.50
2022-11-29T05:05:31.657Z,8.60
2022-11-29T05:08:04.473Z,8.60
2022-11-29T05:10:33.885Z,8.60
2022-11-29T05:13:13.034Z,8.60
2022-11-29T05:15:45.465Z,8.60
2022-11-29T05:18:30.992Z,8.60
2022-11-29T05:21:06.247Z,8.50
2022-11-29T05:23:39.114Z,8.50
2022-11-29T05:26:10.603Z,8.60
2022-11-29T05:28:37.360Z,8.50
2022-11-29T05:31:11.574Z,8.50
2022-11-29T05:33:44.376Z,8.50
2022-11-29T05:36:24.861Z,8.60
2022-11-29T05:39:01.769Z,8.50
2022-11-29T05:41:43.116Z,8.60
2022-11-29T05:44:15.942Z,8.60
2022-11-29T05:46:45.574Z,8.60
2022-11-29T05:49:15.088Z,8.50
2022-11-29T05:51:50.369Z,8.50
2022-11-29T05:54:28.675Z,8.50
2022-11-29T05:57:14.242Z,8.50
2022-11-29T05:59:42.093Z,8.50
2022-11-29T06:02:15.531Z,8.50
2022-11-29T06:05:13.267Z,8.60
2022-11-29T06:07:42.612Z,8.50
2022-11-29T06:10:11.705Z,8.50
2022-11-29T06:12:38.561Z,8.50
2022-11-29T06:15:40.945Z,8.40
2022-11-29T06:18:23.785Z,8.50
2022-11-29T06:21:14.722Z,8.40
2022-11-29T06:23:48.401Z,8.40
2022-11-29T06:26:29.246Z,8.40
2022-11-29T06:28:58.820Z,8.40
2022-11-29T06:31:28.561Z,8.40
2022-11-29T06:34:01.247Z,8.40
2022-11-29T06:36:28.132Z,8.40
2022-11-29T06:38:54.961Z,8.30
2022-11-29T06:41:22.849Z,8.40
2022-11-29T06:43:50.221Z,8.40
2022-11-29T06:46:26.076Z,8.40
2022-11-29T06:49:01.920Z,8.40
2022-11-29T06:51:33.367Z,8.40
2022-11-29T06:54:19.522Z,8.40
2022-11-29T06:57:10.928Z,8.30
2022-11-29T06:59:40.579Z,8.30
2022-11-29T07:02:25.856Z,8.40
2022-11-29T07:05:11.333Z,8.30
2022-11-29T07:07:38.684Z,8.40
2022-11-29T07:10:08.290Z,8.40
2022-11-29T07:12:38.991Z,8.40
2022-11-29T07:15:06.046Z,8.30
2022-11-29T07:17:44.857Z,8.30
2022-11-29T07:20:30.294Z,8.40
2022-11-29T07:23:17.022Z,8.40
2022-11-29T07:26:03.899Z,8.40
2022-11-29T07:28:37.847Z,8.40
2022-11-29T07:31:23.313Z,8.40
2022-11-29T07:33:49.972Z,8.40
2022-11-29T07:36:25.667Z,8.40
2022-11-29T07:39:01.424Z,8.50
2022-11-29T07:41:40.433Z,8.50
2022-11-29T07:44:25.917Z,8.50
2022-11-29T07:46:52.632Z,8.50
2022-11-29T07:49:19.297Z,8.50
2022-11-29T07:51:45.981Z,8.50
2022-11-29T07:54:15.435Z,8.50
2022-11-29T07:56:42.089Z,8.40
2022-11-29T07:59:12.866Z,8.40
2022-11-29T08:01:40.035Z,8.40
2022-11-29T08:04:17.284Z,8.40
2022-11-29T08:06:52.814Z,8.40
2022-11-29T08:09:19.476Z,8.30
2022-11-29T08:11:46.165Z,8.30
2022-11-29T08:14:12.807Z,8.30
2022-11-29T08:16:39.585Z,8.30
2022-11-29T08:19:06.361Z,8.30
2022-11-29T08:21:33.047Z,8.30
2022-11-29T08:23:59.758Z,8.30
2022-11-29T08:26:31.266Z,8.30
2022-11-29T08:28:58.542Z,8.30
2022-11-29T08:31:25.495Z,8.30
2022-11-29T08:33:52.218Z,8.30
2022-11-29T08:36:20.353Z,8.30
2022-11-29T08:38:47.456Z,8.30
2022-11-29T08:41:15.654Z,8.30
2022-11-29T08:43:42.395Z,8.40
2022-11-29T08:46:12.405Z,8.40
2022-11-29T08:48:41.975Z,8.40
2022-11-29T08:51:08.664Z,8.40
2022-11-29T08:53:51.616Z,8.40
2022-11-29T08:59:05.994Z,8.40
2022-11-29T09:01:32.690Z,8.40
2022-11-29T09:03:59.475Z,8.50
2022-11-29T09:06:30.795Z,8.50
2022-11-29T09:08:58.326Z,8.50
2022-11-29T09:11:26.091Z,8.50
2022-11-29T09:13:54.904Z,8.50
2022-11-29T09:16:23.341Z,8.50
2022-11-29T09:18:51.834Z,8.50
2022-11-29T09:21:19.276Z,8.60
2022-11-29T09:23:46.067Z,8.60
2022-11-29T09:26:16.560Z,8.60
2022-11-29T09:28:43.306Z,8.70
2022-11-29T09:31:12.474Z,8.70
2022-11-29T09:33:42.483Z,8.70
2022-11-29T09:36:10.782Z,8.70
2022-11-29T09:38:37.931Z,8.70
2022-11-29T09:41:13.663Z,8.70
2022-11-29T09:43:40.474Z,8.70
2022-11-29T09:46:28.634Z,8.80
2022-11-29T09:49:07.709Z,8.80
2022-11-29T09:51:48.860Z,8.90
2022-11-29T09:54:18.603Z,9.00
2022-11-29T09:56:46.943Z,9.10
2022-11-29T09:59:18.679Z,9.20
2022-11-29T10:01:47.630Z,9.30
2022-11-29T10:04:19.990Z,9.30
2022-11-29T10:07:04.082Z,9.40
2022-11-29T10:09:39.466Z,9.50
2022-11-29T10:12:12.644Z,9.60
2022-11-29T10:14:44.490Z,9.70
2022-11-29T10:17:33.857Z,9.70
2022-11-29T10:20:07.252Z,9.80
2022-11-29T10:22:39.101Z,9.90
2022-11-29T10:25:07.003Z,10.00
2022-11-29T10:27:35.397Z,10.10
2022-11-29T10:30:03.104Z,10.00
2022-11-29T10:32:32.430Z,10.10
2022-11-29T10:35:00.910Z,10.10
2022-11-29T10:37:32.611Z,10.10
2022-11-29T10:40:04.198Z,10.10
2022-11-29T10:42:49.285Z,10.10
2022-11-29T10:45:28.248Z,10.10
2022-11-29T10:47:56.547Z,10.10
2022-11-29T10:50:27.642Z,10.10
2022-11-29T10:52:59.899Z,10.10
2022-11-29T10:55:28.328Z,10.10
2022-11-29T10:58:15.029Z,10.10
2022-11-29T11:00:44.811Z,10.10
2022-11-29T11:03:22.300Z,10.10
2022-11-29T11:05:59.661Z,10.20
2022-11-29T11:08:26.771Z,10.30
2022-11-29T11:11:01.270Z,10.30
2022-11-29T11:13:29.722Z,10.20
2022-11-29T11:15:57.558Z,10.10
2022-11-29T11:18:26.730Z,10.10
2022-11-29T11:20:54.777Z,10.10
2022-11-29T11:23:26.243Z,10.10
2022-11-29T11:25:57.514Z,10.10
2022-11-29T11:28:29.963Z,10.20
2022-11-29T11:31:05.777Z,10.30
2022-11-29T11:33:34.827Z,10.30
2022-11-29T11:36:08.169Z,10.40
2022-11-29T11:38:36.941Z,10.50
2022-11-29T11:41:48.013Z,10.50
2022-11-29T11:44:47.015Z,10.50
2022-11-29T11:47:22.434Z,10.50
2022-11-29T11:50:07.990Z,10.40
2022-11-29T11:52:40.683Z,10.30
2022-11-29T11:55:17.717Z,10.30
2022-11-29T11:57:44.951Z,10.30
2022-11-29T12:01:01.899Z,10.20
2022-11-29T12:03:30.547Z,10.30
2022-11-29T12:06:06.192Z,10.50
2022-11-29T12:08:36.682Z,10.70
2022-11-29T12:11:07.446Z,10.90
2022-11-29T12:13:36.194Z,11.00
2022-11-29T12:16:10.963Z,11.20
2022-11-29T12:18:56.155Z,11.20
2022-11-29T12:21:24.306Z,11.10
2022-11-29T12:23:57.694Z,11.10
2022-11-29T12:29:28.303Z,11.10
2022-11-29T12:32:04.482Z,11.10
2022-11-29T12:34:51.975Z,11.10
2022-11-29T12:37:30.915Z,11.10
2022-11-29T12:39:57.665Z,11.20
2022-11-29T12:42:24.250Z,11.20
2022-11-29T12:45:02.058Z,11.20
2022-11-29T12:47:37.095Z,11.20
2022-11-29T12:50:18.039Z,11.10
2022-11-29T12:52:50.602Z,11.10
2022-11-29T12:55:20.730Z,11.00
2022-11-29T12:57:55.015Z,11.10
2022-11-29T13:00:21.875Z,11.10
2022-11-29T13:03:06.758Z,11.10
2022-11-29T13:06:00.613Z,11.10
2022-11-29T13:08:46.075Z,11.10
2022-11-29T13:11:18.822Z,11.00
2022-11-29T13:14:13.779Z,10.90
2022-11-29T13:16:50.077Z,10.90
2022-11-29T13:19:25.984Z,11.00
2022-11-29T13:22:02.895Z,11.00
2022-11-29T13:24:50.116Z,10.90
2022-11-29T13:27:38.212Z,10.90
2022-11-29T13:30:07.996Z,10.80
2022-11-29T13:32:42.763Z,10.70
2022-11-29T13:35:09.550Z,10.60
2022-11-29T13:37:53.560Z,10.50
2022-11-29T13:40:25.854Z,10.60
2022-11-29T13:43:04.639Z,10.60
2022-11-29T13:45:39.026Z,10.50
2022-11-29T13:48:27.986Z,10.50
2022-11-29T13:50:58.015Z,10.40
2022-11-29T13:53:29.320Z,10.40
2022-11-29T13:56:02.731Z,10.40
2022-11-29T13:58:30.586Z,10.40
2022-11-29T14:01:03.028Z,10.30
2022-11-29T14:03:53.026Z,10.30
2022-11-29T14:06:21.809Z,10.30
2022-11-29T14:09:27.938Z,10.20
2022-11-29T14:11:50.166Z,10.20
2022-11-29T14:14:16.893Z,10.10
2022-11-29T14:16:43.505Z,10.10
2022-11-29T14:19:10.190Z,10.00
2022-11-29T14:21:55.710Z,10.00
2022-11-29T14:24:37.344Z,9.90
2022-11-29T14:27:06.831Z,9.90
2022-11-29T14:29:55.266Z,9.80
2022-11-29T14:32:25.018Z,9.70
2022-11-29T14:34:57.698Z,9.60
2022-11-29T14:37:35.329Z,9.40
2022-11-29T14:40:04.904Z,9.30
2022-11-29T14:42:31.783Z,9.20
2022-11-29T14:45:01.399Z,9.20
2022-11-29T14:47:31.487Z,9.10
2022-11-29T14:50:00.044Z,9.00
2022-11-29T14:52:35.821Z,9.00
2022-11-29T14:55:09.340Z,8.90
2022-11-29T14:57:48.520Z,8.80
2022-11-29T15:00:23.862Z,8.70
2022-11-29T15:02:58.634Z,8.70
2022-11-29T15:05:37.297Z,8.60
2022-11-29T15:08:04.746Z,8.60
2022-11-29T15:10:36.402Z,8.60
2022-11-29T15:13:04.118Z,8.60
2022-11-29T15:15:44.700Z,8.50
2022-11-29T15:18:29.962Z,8.60
2022-11-29T15:21:03.290Z,8.60
2022-11-29T15:23:38.985Z,8.70
2022-11-29T15:26:06.695Z,8.70
2022-11-29T15:28:33.823Z,8.70
2022-11-29T15:31:10.848Z,8.70
2022-11-29T15:33:42.514Z,8.70
2022-11-29T15:36:13.335Z,8.60
2022-11-29T15:38:44.445Z,8.70
2022-11-29T15:41:27.878Z,8.70
2022-11-29T15:43:57.077Z,8.60
2022-11-29T15:46:25.178Z,8.60
2022-11-29T15:48:51.869Z,8.60
2022-11-29T15:51:28.549Z,8.60
2022-11-29T15:54:13.300Z,8.60
2022-11-29T15:56:40.285Z,8.70
2022-11-29T15:59:27.034Z,8.60
2022-11-29T16:01:57.157Z,8.70
2022-11-29T16:04:24.961Z,8.60
2022-11-29T16:06:54.697Z,8.60
2022-11-29T16:09:24.973Z,8.60
2022-11-29T16:11:51.795Z,8.60
2022-11-29T16:14:18.544Z,8.60
2022-11-29T16:16:46.834Z,8.60
2022-11-29T16:19:26.006Z,8.60
2022-11-29T16:22:10.920Z,8.60
2022-11-29T16:24:40.828Z,8.60
2022-11-29T16:27:08.201Z,8.70
2022-11-29T16:29:41.579Z,8.70
2022-11-29T16:32:23.722Z,8.70
2022-11-29T16:34:50.517Z,8.60
2022-11-29T16:37:28.442Z,8.70
2022-11-29T16:40:00.605Z,8.70
2022-11-29T16:42:29.123Z,8.70
2022-11-29T16:45:01.712Z,8.60
2022-11-29T16:47:47.329Z,8.60
2022-11-29T16:50:14.141Z,8.60
2022-11-29T16:52:40.899Z,8.60
2022-11-29T16:55:07.828Z,8.60
2022-11-29T16:57:35.016Z,8.50
2022-11-29T17:00:01.781Z,8.50
2022-11-29T17:02:29.380Z,8.50
2022-11-29T17:04:57.074Z,8.50
2022-11-29T17:07:27.024Z,8.50
2022-11-29T17:09:53.977Z,8.50
2022-11-29T17:12:20.641Z,8.50
2022-11-29T17:14:48.587Z,8.50
2022-11-29T17:17:16.579Z,8.50
2022-11-29T17:19:43.431Z,8.50
2022-11-29T17:22:10.882Z,8.80
2022-11-29T17:24:46.190Z,8.90
2022-11-29T17:27:19.190Z,8.90
2022-11-29T17:29:51.790Z,8.80
2022-11-29T17:32:20.906Z,8.80
2022-11-29T17:35:00.834Z,8.80
2022-11-29T17:37:28.332Z,8.80
2022-11-29T17:39:55.082Z,8.80
2022-11-29T17:42:21.755Z,8.80
2022-11-29T17:44:51.471Z,8.80
2022-11-29T17:47:19.951Z,8.80
2022-11-29T17:49:47.472Z,8.70
2022-11-29T17:52:14.475Z,8.70
2022-11-29T17:54:41.218Z,8.60
2022-11-29T17:57:08.538Z,8.60
2022-11-29T17:59:36.606Z,8.60
2022-11-29T18:02:07.237Z,8.60
2022-11-29T18:04:35.176Z,8.60
2022-11-29T18:07:02.081Z,8.60
2022-11-29T18:09:31.564Z,8.60
2022-11-29T18:11:59.456Z,8.60
2022-11-29T18:14:28.477Z,8.60
2022-11-29T18:16:55.343Z,8.60
2022-11-29T18:19:25.399Z,8.60
2022-11-29T18:21:52.276Z,8.60
2022-11-29T18:24:18.922Z,8.60
2022-11-29T18:26:45.981Z,8.60
2022-11-29T18:29:12.709Z,8.60
2022-11-29T18:31:43.813Z,8.60
2022-11-29T18:34:11.488Z,8.60
2022-11-29T18:36:39.845Z,8.60
2022-11-29T18:39:11.846Z,8.60
2022-11-29T18:41:39.010Z,8.60
2022-11-29T18:44:10.038Z,8.70
2022-11-29T18:46:39.617Z,8.60
2022-11-29T18:49:07.283Z,8.70
2022-11-29T18:51:34.412Z,8.60
2022-11-29T18:54:01.924Z,8.70
2022-11-29T18:56:29.976Z,8.60
2022-11-29T19:01:43.099Z,8.60
2022-11-29T19:04:13.837Z,8.60
2022-11-29T19:12:11.277Z,8.60
2022-11-29T19:14:38.755Z,8.50
2022-11-29T19:17:05.443Z,8.50
2022-11-29T19:19:32.354Z,8.50
2022-11-29T19:21:59.812Z,8.50
2022-11-29T19:24:26.707Z,8.50
2022-11-29T19:26:55.847Z,8.50
2022-11-29T19:29:22.679Z,8.40
2022-11-29T19:31:50.544Z,8.40
2022-11-29T19:34:17.430Z,8.40
2022-11-29T19:36:46.302Z,8.40
2022-11-29T19:39:14.966Z,8.40
2022-11-29T19:49:46.427Z,8.40
2022-11-29T19:52:13.814Z,8.40
2022-11-29T19:54:40.620Z,8.40
2022-11-29T19:57:09.725Z,8.40
2022-11-29T19:59:36.702Z,8.50
2022-11-29T20:02:03.401Z,8.40
2022-11-29T20:04:30.591Z,8.50
2022-11-29T20:06:58.147Z,8.50
2022-11-29T20:09:26.713Z,8.50
2022-11-29T20:11:53.886Z,8.50
2022-11-29T20:14:20.882Z,8.50
2022-11-29T20:16:47.743Z,8.50
2022-11-29T20:19:16.638Z,8.50
2022-11-29T20:21:45.122Z,8.50
2022-11-29T20:24:13.134Z,8.50
2022-11-29T20:26:41.313Z,8.40
2022-11-29T20:29:09.207Z,8.40
2022-11-29T20:31:37.315Z,8.40
2022-11-29T20:34:16.739Z,8.30
2022-11-29T20:36:44.146Z,8.30
2022-11-29T20:39:36.933Z,8.30
2022-11-29T20:42:25.116Z,8.20
2022-11-29T20:44:55.816Z,8.30
2022-11-29T20:47:23.903Z,8.30
2022-11-29T20:49:50.955Z,8.30
2022-11-29T20:52:27.279Z,8.40
2022-11-29T20:55:01.597Z,8.40
2022-11-29T20:57:48.473Z,8.40
2022-11-29T21:00:56.698Z,8.50
2022-11-29T21:03:23.785Z,8.40
2022-11-29T21:06:10.933Z,8.50
2022-11-29T21:08:46.936Z,8.50
2022-11-29T21:11:16.605Z,8.40
2022-11-29T21:13:46.389Z,8.50
2022-11-29T21:16:13.534Z,8.50
2022-11-29T21:18:41.139Z,8.50
2022-11-29T21:21:22.812Z,8.50
2022-11-29T21:23:58.263Z,8.50
2022-11-29T21:26:29.411Z,8.50
2022-11-29T21:29:07.722Z,8.50
2022-11-29T21:31:34.496Z,8.50
2022-11-29T21:34:01.360Z,8.50
2022-11-29T21:36:28.306Z,8.50
2022-11-29T21:39:07.083Z,8.50
2022-11-29T21:41:38.635Z,8.60
2022-11-29T21:44:11.040Z,8.60
2022-11-29T21:46:37.834Z,8.60
2022-11-29T21:49:04.808Z,8.60
2022-11-29T21:51:31.493Z,8.60
2022-11-29T21:56:43.753Z,8.60
2022-11-29T21:59:10.482Z,8.60
2022-11-29T22:01:40.096Z,8.70
2022-11-29T22:04:06.948Z,8.70
2022-11-29T22:06:33.919Z,8.60
2022-11-29T22:09:00.670Z,8.60
2022-11-29T22:11:36.767Z,8.60
2022-11-29T22:14:19.584Z,8.60
2022-11-29T22:16:48.732Z,8.60
2022-11-29T22:19:29.053Z,8.70
2022-11-29T22:22:10.494Z,8.70
2022-11-29T22:24:50.614Z,8.70
2022-11-29T22:27:20.676Z,8.80
2022-11-29T22:30:07.592Z,8.80
2022-11-29T22:32:35.757Z,8.80
2022-11-29T22:35:11.572Z,8.90
2022-11-29T22:37:38.369Z,8.80
2022-11-29T22:40:07.009Z,8.90
2022-11-29T22:42:33.816Z,8.90
2022-11-29T22:45:06.311Z,8.90
2022-11-29T22:47:33.339Z,8.90
2022-11-29T22:50:00.149Z,8.90
2022-11-29T22:52:27.181Z,8.90
2022-11-29T22:57:37.501Z,8.90
2022-11-29T23:00:06.029Z,8.90
2022-11-29T23:02:39.339Z,8.90
2022-11-29T23:05:06.279Z,8.80
2022-11-29T23:07:35.555Z,8.80
2022-11-29T23:10:03.258Z,8.80
2022-11-29T23:12:29.965Z,8.80
2022-11-29T23:15:04.567Z,8.80
2022-11-29T23:17:31.237Z,8.80
2022-11-29T23:19:58.382Z,8.80
2022-11-29T23:22:35.918Z,8.80
2022-11-29T23:25:02.926Z,8.80
2022-11-29T23:27:30.798Z,8.70
2022-11-29T23:29:58.813Z,8.70
2022-11-29T23:32:25.559Z,8.70
2022-11-29T23:34:52.258Z,8.70
2022-11-29T23:37:18.888Z,8.70
2022-11-29T23:39:45.931Z,8.70
2022-11-29T23:42:12.541Z,8.70
2022-11-29T23:44:44.250Z,8.70
2022-11-29T23:47:11.108Z,8.70
2022-11-29T23:49:39.840Z,8.70
2022-11-29T23:52:06.567Z,8.70
2022-11-29T23:54:33.407Z,8.70
2022-11-29T23:57:00.093Z,8.70
2022-11-29T23:59:26.765Z,8.70
